Accueil
METAR-TAF:

METAR-TAF

Aéroports :

Aéroport de Djanet - Tiska

Djanet, Algérie

latitude: 24-33N, longitude: 009-28E, altitude: 1054 m

Observation

Le bulletin a été fait il y a 28 minutes, à 11:00 UTC
Vent 7 kt de sud/sud-est
Température 16°C
Humidité 21%
Pression 1023 hPa
Visibilité 10 km ou plus
pas de nuages en-dessous de 1500 mètres et pas de cumulonimbus.

METAR: DAAJ 201100Z 16007KT CAVOK 16/M06 Q1023

Heure: 12:28 (11:28 UTC)

Prévision

Le bulletin a été fait il y a 6 heures et 28 minutes, à 05:00 UTC
Prévision valable du 20 à 06 UTC au 21 à 06 UTC
Vent 6 kt de nord/nord-est
Visibilité 10 km ou plus
pas de nuages en-dessous de 1500 mètres et pas de cumulonimbus.
Evoluant progressivement
du 20 à 10 UTC au 20 à 13 UTC
Vent 12 kt de sud
Evoluant progressivement
du 20 à 21 UTC au 21 à 01 UTC
Vent 2 kt de direction variable

TAF: DAAJ 200500Z 2006/2106 02006KT CAVOK BECMG 2010/2013 19012KT BECMG 2021/2101 VRB02KT

Observations et prévisions météorologiques de plus de 4000 aéroports (messages METAR et TAF).

Les stations disponibles sont représentées par des disques jaunes et rouges sur la carte.

Passer la souris dessus pour voir le nom de la station.

Cliquer dessus pour voir les observations et prévisions météorologiques.

Pour changer de carte: cliquez sur les boutons verts avec une croix noire pour zoomer, sur le bouton vert avec un tiret pour effectuer un zoom arrière, ou sur les flèches vertes pour les cartes adjacentes.


METAR-TAF: